sensor_id;sensor_type;location;lat;lon;timestamp;pressure;altitude;pressure_sealevel;temperature;humidity
76128;BME280;64873;50.102;14.434;2023-02-20T00:02:02;100149.63;;;3.79;71.44
76128;BME280;64873;50.102;14.434;2023-02-20T00:04:27;100150.84;;;3.85;71.03
76128;BME280;64873;50.102;14.434;2023-02-20T00:06:53;100142.00;;;3.94;71.07
76128;BME280;64873;50.102;14.434;2023-02-20T00:09:18;100149.03;;;3.85;70.95
76128;BME280;64873;50.102;14.434;2023-02-20T00:11:44;100153.69;;;3.91;71.52
76128;BME280;64873;50.102;14.434;2023-02-20T00:14:11;100130.97;;;3.81;71.54
76128;BME280;64873;50.102;14.434;2023-02-20T00:16:36;100130.47;;;3.77;72.20
76128;BME280;64873;50.102;14.434;2023-02-20T00:19:02;100117.91;;;3.79;71.73
76128;BME280;64873;50.102;14.434;2023-02-20T00:21:28;100128.63;;;3.95;71.36
76128;BME280;64873;50.102;14.434;2023-02-20T00:23:53;100113.13;;;4.00;71.03
76128;BME280;64873;50.102;14.434;2023-02-20T00:26:18;100116.91;;;3.98;71.17
76128;BME280;64873;50.102;14.434;2023-02-20T00:28:44;100115.09;;;3.98;71.04
76128;BME280;64873;50.102;14.434;2023-02-20T00:31:13;100107.59;;;4.12;70.79
76128;BME280;64873;50.102;14.434;2023-02-20T00:33:40;100103.22;;;4.03;71.16
76128;BME280;64873;50.102;14.434;2023-02-20T00:36:05;100091.72;;;4.12;70.97
76128;BME280;64873;50.102;14.434;2023-02-20T00:38:31;100103.19;;;3.94;71.88
76128;BME280;64873;50.102;14.434;2023-02-20T00:40:56;100109.03;;;4.06;71.21
76128;BME280;64873;50.102;14.434;2023-02-20T00:43:22;100100.53;;;3.94;71.24
76128;BME280;64873;50.102;14.434;2023-02-20T00:45:47;100101.44;;;3.85;71.86
76128;BME280;64873;50.102;14.434;2023-02-20T00:48:12;100101.84;;;3.98;71.48
76128;BME280;64873;50.102;14.434;2023-02-20T00:50:38;100098.56;;;3.96;71.54
76128;BME280;64873;50.102;14.434;2023-02-20T00:53:03;100096.97;;;3.86;70.98
76128;BME280;64873;50.102;14.434;2023-02-20T00:55:29;100102.78;;;4.07;71.64
76128;BME280;64873;50.102;14.434;2023-02-20T00:57:54;100101.84;;;3.98;71.27
76128;BME280;64873;50.102;14.434;2023-02-20T01:00:23;100103.84;;;3.96;71.04
76128;BME280;64873;50.102;14.434;2023-02-20T01:02:49;100107.91;;;4.09;70.91
76128;BME280;64873;50.102;14.434;2023-02-20T01:05:14;100112.06;;;4.11;70.78
76128;BME280;64873;50.102;14.434;2023-02-20T01:07:40;100099.09;;;4.26;70.16
76128;BME280;64873;50.102;14.434;2023-02-20T01:10:06;100101.06;;;4.24;70.80
76128;BME280;64873;50.102;14.434;2023-02-20T01:12:31;100095.09;;;4.22;70.82
76128;BME280;64873;50.102;14.434;2023-02-20T01:14:57;100097.28;;;4.00;70.97
76128;BME280;64873;50.102;14.434;2023-02-20T01:17:22;100082.19;;;4.19;70.50
76128;BME280;64873;50.102;14.434;2023-02-20T01:19:47;100079.06;;;3.97;70.55
76128;BME280;64873;50.102;14.434;2023-02-20T01:22:13;100077.63;;;4.29;70.14
76128;BME280;64873;50.102;14.434;2023-02-20T01:24:38;100069.22;;;4.08;70.74
76128;BME280;64873;50.102;14.434;2023-02-20T01:27:04;100080.19;;;4.21;70.63
76128;BME280;64873;50.102;14.434;2023-02-20T01:29:29;100081.81;;;4.14;70.48
76128;BME280;64873;50.102;14.434;2023-02-20T01:31:55;100090.28;;;4.17;70.10
76128;BME280;64873;50.102;14.434;2023-02-20T01:34:20;100078.47;;;3.86;70.88
76128;BME280;64873;50.102;14.434;2023-02-20T01:36:50;100073.31;;;4.02;71.22
76128;BME280;64873;50.102;14.434;2023-02-20T01:39:18;100064.66;;;4.18;70.55
76128;BME280;64873;50.102;14.434;2023-02-20T01:41:46;100068.38;;;4.07;70.53
76128;BME280;64873;50.102;14.434;2023-02-20T01:44:27;100069.19;;;4.34;70.18
76128;BME280;64873;50.102;14.434;2023-02-20T01:46:54;100047.22;;;4.07;70.75
76128;BME280;64873;50.102;14.434;2023-02-20T01:49:26;100047.16;;;4.25;70.47
76128;BME280;64873;50.102;14.434;2023-02-20T01:52:02;100046.50;;;4.23;71.09
76128;BME280;64873;50.102;14.434;2023-02-20T01:54:32;100026.56;;;4.37;70.90
76128;BME280;64873;50.102;14.434;2023-02-20T01:57:01;100018.16;;;4.15;71.53
76128;BME280;64873;50.102;14.434;2023-02-20T01:59:29;100019.13;;;4.06;71.51
76128;BME280;64873;50.102;14.434;2023-02-20T02:01:56;100013.50;;;4.09;72.15
76128;BME280;64873;50.102;14.434;2023-02-20T02:04:22;100008.75;;;4.13;72.07
76128;BME280;64873;50.102;14.434;2023-02-20T02:06:48;100010.72;;;4.11;72.33
76128;BME280;64873;50.102;14.434;2023-02-20T02:09:48;100022.72;;;4.31;72.43
76128;BME280;64873;50.102;14.434;2023-02-20T02:12:16;100017.88;;;4.18;73.40
76128;BME280;64873;50.102;14.434;2023-02-20T02:14:41;100008.00;;;4.28;74.51
76128;BME280;64873;50.102;14.434;2023-02-20T02:18:07;100012.69;;;4.09;75.04
76128;BME280;64873;50.102;14.434;2023-02-20T02:23:18;100007.72;;;4.06;76.35
76128;BME280;64873;50.102;14.434;2023-02-20T02:26:25;100001.88;;;3.94;76.50
76128;BME280;64873;50.102;14.434;2023-02-20T02:37:43;99977.41;;;4.26;74.55
76128;BME280;64873;50.102;14.434;2023-02-20T02:40:19;99974.13;;;4.32;74.04
76128;BME280;64873;50.102;14.434;2023-02-20T02:42:53;99969.44;;;4.18;74.39
76128;BME280;64873;50.102;14.434;2023-02-20T02:48:19;99968.16;;;4.30;73.74
76128;BME280;64873;50.102;14.434;2023-02-20T02:50:48;99963.16;;;4.19;74.28
76128;BME280;64873;50.102;14.434;2023-02-20T02:53:15;99972.72;;;4.12;73.80
76128;BME280;64873;50.102;14.434;2023-02-20T02:55:40;99960.13;;;4.06;74.21
76128;BME280;64873;50.102;14.434;2023-02-20T02:58:06;99972.72;;;4.12;74.30
76128;BME280;64873;50.102;14.434;2023-02-20T03:00:44;99964.34;;;4.24;74.39
76128;BME280;64873;50.102;14.434;2023-02-20T03:03:19;99969.09;;;4.21;74.32
76128;BME280;64873;50.102;14.434;2023-02-20T03:08:30;99976.38;;;4.19;74.40
76128;BME280;64873;50.102;14.434;2023-02-20T03:11:18;99986.50;;;4.32;74.82
76128;BME280;64873;50.102;14.434;2023-02-20T03:14:08;99977.19;;;4.19;74.72
76128;BME280;64873;50.102;14.434;2023-02-20T03:19:48;99958.03;;;4.17;74.71
76128;BME280;64873;50.102;14.434;2023-02-20T03:22:26;99951.56;;;4.20;75.10
76128;BME280;64873;50.102;14.434;2023-02-20T03:25:01;99950.63;;;4.29;74.65
76128;BME280;64873;50.102;14.434;2023-02-20T03:27:52;99944.00;;;4.33;75.28
76128;BME280;64873;50.102;14.434;2023-02-20T03:32:58;99948.38;;;4.50;75.24
76128;BME280;64873;50.102;14.434;2023-02-20T03:35:44;99943.25;;;4.41;76.31
76128;BME280;64873;50.102;14.434;2023-02-20T03:38:31;99943.72;;;4.36;76.95
76128;BME280;64873;50.102;14.434;2023-02-20T03:41:18;99946.72;;;4.49;77.01
76128;BME280;64873;50.102;14.434;2023-02-20T03:44:05;99938.47;;;4.52;76.47
76128;BME280;64873;50.102;14.434;2023-02-20T03:46:32;99938.97;;;4.56;76.84
76128;BME280;64873;50.102;14.434;2023-02-20T03:49:08;99947.38;;;4.43;76.93
76128;BME280;64873;50.102;14.434;2023-02-20T03:51:35;99946.41;;;4.52;77.76
76128;BME280;64873;50.102;14.434;2023-02-20T03:54:01;99947.06;;;4.54;77.99
76128;BME280;64873;50.102;14.434;2023-02-20T03:56:48;99957.34;;;4.58;77.89
76128;BME280;64873;50.102;14.434;2023-02-20T03:59:30;99949.19;;;4.51;77.99
76128;BME280;64873;50.102;14.434;2023-02-20T04:02:01;99959.66;;;4.69;77.33
76128;BME280;64873;50.102;14.434;2023-02-20T04:04:35;99950.34;;;4.40;78.11
76128;BME280;64873;50.102;14.434;2023-02-20T04:07:06;99938.78;;;4.41;79.27
76128;BME280;64873;50.102;14.434;2023-02-20T04:09:35;99942.44;;;4.57;79.05
76128;BME280;64873;50.102;14.434;2023-02-20T04:12:23;99939.81;;;4.65;79.02
76128;BME280;64873;50.102;14.434;2023-02-20T04:14:51;99943.47;;;4.64;78.97
76128;BME280;64873;50.102;14.434;2023-02-20T04:17:23;99934.34;;;4.58;79.83
76128;BME280;64873;50.102;14.434;2023-02-20T04:19:48;99935.16;;;4.50;78.89
76128;BME280;64873;50.102;14.434;2023-02-20T04:22:19;99932.94;;;4.30;80.10
76128;BME280;64873;50.102;14.434;2023-02-20T04:24:54;99938.19;;;4.21;80.35
76128;BME280;64873;50.102;14.434;2023-02-20T04:27:20;99938.34;;;4.20;80.82
76128;BME280;64873;50.102;14.434;2023-02-20T04:29:46;99926.41;;;4.16;80.81
76128;BME280;64873;50.102;14.434;2023-02-20T04:32:12;99928.75;;;4.19;80.89
76128;BME280;64873;50.102;14.434;2023-02-20T04:34:37;99934.25;;;4.25;80.79
76128;BME280;64873;50.102;14.434;2023-02-20T04:37:10;99941.38;;;4.33;80.93
76128;BME280;64873;50.102;14.434;2023-02-20T04:39:36;99932.50;;;4.50;80.84
76128;BME280;64873;50.102;14.434;2023-02-20T04:42:01;99924.22;;;4.45;80.38
76128;BME280;64873;50.102;14.434;2023-02-20T04:44:27;99927.53;;;4.47;80.66
76128;BME280;64873;50.102;14.434;2023-02-20T04:46:55;99918.25;;;4.43;80.44
76128;BME280;64873;50.102;14.434;2023-02-20T04:49:21;99916.78;;;4.41;80.51
76128;BME280;64873;50.102;14.434;2023-02-20T04:51:46;99924.03;;;4.39;80.40
76128;BME280;64873;50.102;14.434;2023-02-20T04:54:12;99913.78;;;4.36;80.54
76128;BME280;64873;50.102;14.434;2023-02-20T04:56:37;99896.06;;;4.28;80.61
76128;BME280;64873;50.102;14.434;2023-02-20T04:59:03;99901.44;;;4.52;81.19
76128;BME280;64873;50.102;14.434;2023-02-20T05:01:29;99894.78;;;4.57;80.20
76128;BME280;64873;50.102;14.434;2023-02-20T05:03:54;99891.00;;;4.59;80.15
76128;BME280;64873;50.102;14.434;2023-02-20T05:06:19;99902.09;;;4.54;80.94
76128;BME280;64873;50.102;14.434;2023-02-20T05:08:45;99906.38;;;4.47;80.90
76128;BME280;64873;50.102;14.434;2023-02-20T05:11:10;99911.50;;;4.49;81.12
76128;BME280;64873;50.102;14.434;2023-02-20T05:13:36;99913.31;;;4.57;80.99
76128;BME280;64873;50.102;14.434;2023-02-20T05:16:01;99914.66;;;4.52;81.19
76128;BME280;64873;50.102;14.434;2023-02-20T05:18:28;99924.44;;;4.60;81.00
76128;BME280;64873;50.102;14.434;2023-02-20T05:20:54;99913.88;;;4.76;81.18
76128;BME280;64873;50.102;14.434;2023-02-20T05:23:38;99915.66;;;4.68;80.97
76128;BME280;64873;50.102;14.434;2023-02-20T05:26:11;99914.38;;;5.13;80.66
76128;BME280;64873;50.102;14.434;2023-02-20T05:28:37;99918.22;;;5.10;80.40
76128;BME280;64873;50.102;14.434;2023-02-20T05:31:04;99919.03;;;5.11;80.55
76128;BME280;64873;50.102;14.434;2023-02-20T05:33:30;99926.47;;;5.31;79.51
76128;BME280;64873;50.102;14.434;2023-02-20T05:35:56;99934.06;;;5.59;78.77
76128;BME280;64873;50.102;14.434;2023-02-20T05:38:21;99941.84;;;5.44;78.79
76128;BME280;64873;50.102;14.434;2023-02-20T05:40:46;99939.53;;;5.49;78.75
76128;BME280;64873;50.102;14.434;2023-02-20T05:43:12;99940.16;;;5.68;77.98
76128;BME280;64873;50.102;14.434;2023-02-20T05:45:37;99923.06;;;5.78;77.46
76128;BME280;64873;50.102;14.434;2023-02-20T05:48:03;99916.75;;;5.87;77.21
76128;BME280;64873;50.102;14.434;2023-02-20T05:50:28;99923.22;;;5.85;77.34
76128;BME280;64873;50.102;14.434;2023-02-20T05:52:54;99936.47;;;5.85;77.11
76128;BME280;64873;50.102;14.434;2023-02-20T05:55:19;99945.44;;;5.84;77.38
76128;BME280;64873;50.102;14.434;2023-02-20T05:57:44;99936.34;;;5.86;77.02
76128;BME280;64873;50.102;14.434;2023-02-20T06:00:10;99929.34;;;5.85;77.45
76128;BME280;64873;50.102;14.434;2023-02-20T06:02:36;99927.69;;;5.84;77.67
76128;BME280;64873;50.102;14.434;2023-02-20T06:05:02;99936.50;;;5.93;77.62
76128;BME280;64873;50.102;14.434;2023-02-20T06:07:29;99926.19;;;5.90;78.27
76128;BME280;64873;50.102;14.434;2023-02-20T06:09:56;99925.53;;;5.88;78.25
76128;BME280;64873;50.102;14.434;2023-02-20T06:12:21;99947.13;;;5.93;78.27
76128;BME280;64873;50.102;14.434;2023-02-20T06:14:47;99932.16;;;6.00;77.70
76128;BME280;64873;50.102;14.434;2023-02-20T06:17:12;99941.00;;;5.93;77.81
76128;BME280;64873;50.102;14.434;2023-02-20T06:19:38;99938.09;;;6.10;77.23
76128;BME280;64873;50.102;14.434;2023-02-20T06:22:03;99931.13;;;6.09;76.98
76128;BME280;64873;50.102;14.434;2023-02-20T06:24:29;99924.31;;;6.15;77.17
76128;BME280;64873;50.102;14.434;2023-02-20T06:26:54;99922.19;;;6.10;77.24
76128;BME280;64873;50.102;14.434;2023-02-20T06:29:19;99919.22;;;6.05;77.76
76128;BME280;64873;50.102;14.434;2023-02-20T06:31:45;99915.19;;;6.09;77.42
76128;BME280;64873;50.102;14.434;2023-02-20T06:34:11;99922.19;;;6.02;77.55
76128;BME280;64873;50.102;14.434;2023-02-20T06:36:39;99919.19;;;6.13;78.70
76128;BME280;64873;50.102;14.434;2023-02-20T06:39:06;99917.16;;;6.24;77.45
76128;BME280;64873;50.102;14.434;2023-02-20T06:41:32;99918.50;;;6.20;77.17
76128;BME280;64873;50.102;14.434;2023-02-20T06:43:57;99918.47;;;6.28;77.81
76128;BME280;64873;50.102;14.434;2023-02-20T06:46:23;99919.75;;;6.32;77.25
76128;BME280;64873;50.102;14.434;2023-02-20T06:48:51;99917.22;;;6.38;76.73
76128;BME280;64873;50.102;14.434;2023-02-20T06:51:27;99931.19;;;6.40;76.22
76128;BME280;64873;50.102;14.434;2023-02-20T06:53:53;99912.09;;;6.45;75.46
76128;BME280;64873;50.102;14.434;2023-02-20T06:56:21;99913.38;;;6.49;75.55
76128;BME280;64873;50.102;14.434;2023-02-20T06:58:49;99915.81;;;6.59;74.70
76128;BME280;64873;50.102;14.434;2023-02-20T07:01:17;99901.03;;;6.56;74.12
76128;BME280;64873;50.102;14.434;2023-02-20T07:03:42;99890.06;;;6.59;73.33
76128;BME280;64873;50.102;14.434;2023-02-20T07:06:11;99895.00;;;6.71;73.50
76128;BME280;64873;50.102;14.434;2023-02-20T07:08:37;99899.41;;;6.78;73.36
76128;BME280;64873;50.102;14.434;2023-02-20T07:11:02;99892.22;;;6.87;72.66
76128;BME280;64873;50.102;14.434;2023-02-20T07:13:28;99905.31;;;6.88;72.77
76128;BME280;64873;50.102;14.434;2023-02-20T07:15:53;99896.13;;;6.99;72.41
76128;BME280;64873;50.102;14.434;2023-02-20T07:18:19;99897.63;;;7.16;72.89
76128;BME280;64873;50.102;14.434;2023-02-20T07:20:49;99893.16;;;7.17;71.77
76128;BME280;64873;50.102;14.434;2023-02-20T07:23:14;99899.63;;;7.14;71.69
76128;BME280;64873;50.102;14.434;2023-02-20T07:25:40;99907.59;;;7.14;71.10
76128;BME280;64873;50.102;14.434;2023-02-20T07:28:05;99899.72;;;7.21;71.14
76128;BME280;64873;50.102;14.434;2023-02-20T07:30:32;99890.66;;;7.15;71.04
76128;BME280;64873;50.102;14.434;2023-02-20T07:32:58;99892.88;;;7.27;70.92
76128;BME280;64873;50.102;14.434;2023-02-20T07:35:23;99894.56;;;7.28;70.38
76128;BME280;64873;50.102;14.434;2023-02-20T07:37:49;99888.56;;;7.26;70.21
76128;BME280;64873;50.102;14.434;2023-02-20T07:40:14;99899.50;;;7.31;70.49
76128;BME280;64873;50.102;14.434;2023-02-20T07:42:39;99893.88;;;7.26;70.75
76128;BME280;64873;50.102;14.434;2023-02-20T07:45:05;99899.88;;;7.28;70.48
76128;BME280;64873;50.102;14.434;2023-02-20T07:47:31;99904.91;;;7.37;69.18
76128;BME280;64873;50.102;14.434;2023-02-20T07:49:56;99899.59;;;7.37;69.57
76128;BME280;64873;50.102;14.434;2023-02-20T07:52:21;99917.78;;;7.48;69.71
76128;BME280;64873;50.102;14.434;2023-02-20T07:54:47;99905.47;;;7.47;68.78
76128;BME280;64873;50.102;14.434;2023-02-20T07:57:13;99892.72;;;7.43;68.47
76128;BME280;64873;50.102;14.434;2023-02-20T07:59:39;99900.56;;;7.59;68.35
76128;BME280;64873;50.102;14.434;2023-02-20T08:02:05;99898.06;;;7.72;68.64
76128;BME280;64873;50.102;14.434;2023-02-20T08:04:31;99888.63;;;7.70;68.73
76128;BME280;64873;50.102;14.434;2023-02-20T08:06:57;99873.84;;;7.67;67.55
76128;BME280;64873;50.102;14.434;2023-02-20T08:09:22;99871.56;;;7.64;67.32
76128;BME280;64873;50.102;14.434;2023-02-20T08:11:47;99870.22;;;7.68;67.06
76128;BME280;64873;50.102;14.434;2023-02-20T08:14:14;99869.66;;;7.88;66.85
76128;BME280;64873;50.102;14.434;2023-02-20T08:16:39;99874.97;;;7.88;66.78
76128;BME280;64873;50.102;14.434;2023-02-20T08:19:04;99873.84;;;7.97;66.09
76128;BME280;64873;50.102;14.434;2023-02-20T08:21:30;99871.53;;;8.09;65.92
76128;BME280;64873;50.102;14.434;2023-02-20T08:23:56;99857.25;;;8.10;65.09
76128;BME280;64873;50.102;14.434;2023-02-20T08:26:21;99863.81;;;8.14;65.40
76128;BME280;64873;50.102;14.434;2023-02-20T08:28:48;99859.88;;;8.39;64.05
76128;BME280;64873;50.102;14.434;2023-02-20T08:31:13;99854.81;;;8.29;64.68
76128;BME280;64873;50.102;14.434;2023-02-20T08:33:39;99842.38;;;8.15;63.90
76128;BME280;64873;50.102;14.434;2023-02-20T08:36:04;99826.63;;;8.20;63.88
76128;BME280;64873;50.102;14.434;2023-02-20T08:38:32;99804.25;;;8.51;63.81
76128;BME280;64873;50.102;14.434;2023-02-20T08:40:59;99824.91;;;8.49;63.21
76128;BME280;64873;50.102;14.434;2023-02-20T08:43:26;99809.06;;;8.26;63.63
76128;BME280;64873;50.102;14.434;2023-02-20T08:45:52;99810.59;;;8.14;64.44
76128;BME280;64873;50.102;14.434;2023-02-20T08:48:17;99828.94;;;8.23;63.62
76128;BME280;64873;50.102;14.434;2023-02-20T08:50:43;99814.34;;;8.19;63.73
76128;BME280;64873;50.102;14.434;2023-02-20T08:53:11;99813.06;;;8.15;64.26
76128;BME280;64873;50.102;14.434;2023-02-20T08:55:37;99816.81;;;8.21;64.16
76128;BME280;64873;50.102;14.434;2023-02-20T08:58:02;99803.47;;;8.36;63.78
76128;BME280;64873;50.102;14.434;2023-02-20T09:00:27;99807.69;;;8.45;63.74
76128;BME280;64873;50.102;14.434;2023-02-20T09:02:53;99787.00;;;8.68;63.43
76128;BME280;64873;50.102;14.434;2023-02-20T09:05:18;99787.78;;;8.62;63.00
76128;BME280;64873;50.102;14.434;2023-02-20T09:07:44;99777.13;;;8.62;63.12
76128;BME280;64873;50.102;14.434;2023-02-20T09:10:09;99785.56;;;8.94;62.81
76128;BME280;64873;50.102;14.434;2023-02-20T09:12:35;99789.06;;;8.73;62.64
76128;BME280;64873;50.102;14.434;2023-02-20T09:15:00;99796.91;;;8.74;62.94
76128;BME280;64873;50.102;14.434;2023-02-20T09:17:27;99772.19;;;8.87;62.09
76128;BME280;64873;50.102;14.434;2023-02-20T09:19:52;99780.28;;;9.00;61.54
76128;BME280;64873;50.102;14.434;2023-02-20T09:22:23;99792.63;;;9.08;61.66
76128;BME280;64873;50.102;14.434;2023-02-20T09:24:49;99780.78;;;9.11;60.97
76128;BME280;64873;50.102;14.434;2023-02-20T09:27:14;99781.97;;;9.08;61.21
76128;BME280;64873;50.102;14.434;2023-02-20T09:29:40;99796.72;;;9.04;61.31
76128;BME280;64873;50.102;14.434;2023-02-20T09:32:07;99791.81;;;9.07;61.20
76128;BME280;64873;50.102;14.434;2023-02-20T09:34:33;99785.34;;;9.23;61.05
76128;BME280;64873;50.102;14.434;2023-02-20T09:36:59;99774.75;;;9.37;60.31
76128;BME280;64873;50.102;14.434;2023-02-20T09:39:24;99789.31;;;9.69;59.81
76128;BME280;64873;50.102;14.434;2023-02-20T09:50:08;99785.91;;;9.47;60.42
76128;BME280;64873;50.102;14.434;2023-02-20T09:52:37;99772.88;;;9.65;59.68
76128;BME280;64873;50.102;14.434;2023-02-20T09:55:10;99750.94;;;9.76;59.79
76128;BME280;64873;50.102;14.434;2023-02-20T09:57:37;99772.03;;;9.65;59.39
76128;BME280;64873;50.102;14.434;2023-02-20T10:00:10;99753.97;;;9.60;59.53
76128;BME280;64873;50.102;14.434;2023-02-20T10:02:53;99738.75;;;9.60;59.59
76128;BME280;64873;50.102;14.434;2023-02-20T10:05:23;99774.13;;;9.69;59.32
76128;BME280;64873;50.102;14.434;2023-02-20T10:07:50;99742.19;;;9.96;60.57
76128;BME280;64873;50.102;14.434;2023-02-20T10:10:24;99724.22;;;10.64;58.99
76128;BME280;64873;50.102;14.434;2023-02-20T10:21:13;99715.31;;;9.97;57.70
76128;BME280;64873;50.102;14.434;2023-02-20T10:23:51;99702.38;;;10.14;57.43
76128;BME280;64873;50.102;14.434;2023-02-20T10:26:31;99705.50;;;10.24;56.67
76128;BME280;64873;50.102;14.434;2023-02-20T10:29:05;99683.88;;;10.06;57.13
76128;BME280;64873;50.102;14.434;2023-02-20T10:31:41;99694.41;;;10.34;56.29
76128;BME280;64873;50.102;14.434;2023-02-20T10:34:39;99688.47;;;10.38;56.36
76128;BME280;64873;50.102;14.434;2023-02-20T10:37:11;99690.72;;;10.28;56.63
76128;BME280;64873;50.102;14.434;2023-02-20T10:39:40;99689.91;;;10.28;56.33
76128;BME280;64873;50.102;14.434;2023-02-20T10:42:17;99689.88;;;10.61;55.80
76128;BME280;64873;50.102;14.434;2023-02-20T10:44:59;99682.69;;;10.55;55.76
76128;BME280;64873;50.102;14.434;2023-02-20T10:47:32;99678.38;;;10.54;55.25
76128;BME280;64873;50.102;14.434;2023-02-20T10:50:07;99691.94;;;10.72;56.05
76128;BME280;64873;50.102;14.434;2023-02-20T10:52:49;99681.88;;;10.41;56.01
76128;BME280;64873;50.102;14.434;2023-02-20T10:57:52;99680.66;;;10.63;55.99
76128;BME280;64873;50.102;14.434;2023-02-20T11:00:29;99672.41;;;10.85;55.44
76128;BME280;64873;50.102;14.434;2023-02-20T11:03:04;99649.41;;;10.51;56.23
76128;BME280;64873;50.102;14.434;2023-02-20T11:05:38;99653.94;;;10.44;56.81
76128;BME280;64873;50.102;14.434;2023-02-20T11:08:05;99654.31;;;10.60;56.11
76128;BME280;64873;50.102;14.434;2023-02-20T11:10:31;99639.56;;;10.45;56.74
76128;BME280;64873;50.102;14.434;2023-02-20T11:12:59;99635.03;;;10.52;57.00
76128;BME280;64873;50.102;14.434;2023-02-20T11:15:28;99653.09;;;10.36;56.97
76128;BME280;64873;50.102;14.434;2023-02-20T11:17:56;99645.53;;;10.33;56.87
76128;BME280;64873;50.102;14.434;2023-02-20T11:22:57;99623.72;;;10.50;55.91
76128;BME280;64873;50.102;14.434;2023-02-20T11:25:27;99631.72;;;10.63;56.24
76128;BME280;64873;50.102;14.434;2023-02-20T11:27:55;99631.72;;;10.63;55.87
76128;BME280;64873;50.102;14.434;2023-02-20T11:30:28;99631.72;;;10.63;55.66
76128;BME280;64873;50.102;14.434;2023-02-20T11:33:05;99593.22;;;10.77;55.06
76128;BME280;64873;50.102;14.434;2023-02-20T11:35:38;99604.97;;;10.70;55.38
76128;BME280;64873;50.102;14.434;2023-02-20T11:43:26;99583.63;;;10.63;54.74
76128;BME280;64873;50.102;14.434;2023-02-20T11:46:19;99596.38;;;10.54;55.16
76128;BME280;64873;50.102;14.434;2023-02-20T11:49:21;99577.38;;;10.82;54.78
76128;BME280;64873;50.102;14.434;2023-02-20T11:51:47;99571.66;;;10.72;54.63
76128;BME280;64873;50.102;14.434;2023-02-20T11:54:22;99599.63;;;10.70;54.70
76128;BME280;64873;50.102;14.434;2023-02-20T12:07:29;99573.78;;;11.15;53.81
76128;BME280;64873;50.102;14.434;2023-02-20T12:12:35;99566.88;;;10.87;53.62
76128;BME280;64873;50.102;14.434;2023-02-20T12:15:00;99568.53;;;10.88;53.39
76128;BME280;64873;50.102;14.434;2023-02-20T12:17:37;99564.16;;;11.01;52.65
76128;BME280;64873;50.102;14.434;2023-02-20T12:20:30;99547.06;;;11.08;52.85
76128;BME280;64873;50.102;14.434;2023-02-20T12:23:23;99541.56;;;10.97;53.00
76128;BME280;64873;50.102;14.434;2023-02-20T12:31:45;99525.06;;;11.00;52.23
76128;BME280;64873;50.102;14.434;2023-02-20T12:34:24;99525.38;;;11.23;51.31
76128;BME280;64873;50.102;14.434;2023-02-20T12:45:13;99517.53;;;11.28;51.17
76128;BME280;64873;50.102;14.434;2023-02-20T12:47:43;99496.72;;;11.30;51.03
76128;BME280;64873;50.102;14.434;2023-02-20T12:55:59;99491.53;;;11.35;50.29
76128;BME280;64873;50.102;14.434;2023-02-20T12:58:52;99497.22;;;11.45;50.03
76128;BME280;64873;50.102;14.434;2023-02-20T13:01:22;99499.19;;;11.32;50.24
76128;BME280;64873;50.102;14.434;2023-02-20T13:07:01;99495.34;;;11.21;51.20
76128;BME280;64873;50.102;14.434;2023-02-20T13:09:32;99492.00;;;11.26;51.27
76128;BME280;64873;50.102;14.434;2023-02-20T13:12:19;99483.50;;;11.04;51.98
76128;BME280;64873;50.102;14.434;2023-02-20T13:21:02;99485.97;;;11.05;52.80
76128;BME280;64873;50.102;14.434;2023-02-20T13:23:31;99473.44;;;10.99;52.62
76128;BME280;64873;50.102;14.434;2023-02-20T13:25:57;99469.97;;;10.99;52.84
76128;BME280;64873;50.102;14.434;2023-02-20T13:28:35;99463.38;;;10.94;52.94
76128;BME280;64873;50.102;14.434;2023-02-20T13:33:35;99453.13;;;10.91;53.11
76128;BME280;64873;50.102;14.434;2023-02-20T13:36:03;99459.69;;;10.95;53.18
76128;BME280;64873;50.102;14.434;2023-02-20T13:38:29;99466.16;;;11.13;53.02
76128;BME280;64873;50.102;14.434;2023-02-20T13:46:15;99468.50;;;11.03;52.53
76128;BME280;64873;50.102;14.434;2023-02-20T13:48:49;99464.63;;;10.99;52.16
76128;BME280;64873;50.102;14.434;2023-02-20T13:56:22;99456.41;;;10.93;52.55
76128;BME280;64873;50.102;14.434;2023-02-20T13:58:49;99456.00;;;10.97;53.00
76128;BME280;64873;50.102;14.434;2023-02-20T14:01:21;99457.88;;;10.89;52.85
76128;BME280;64873;50.102;14.434;2023-02-20T14:03:59;99445.75;;;10.87;53.47
76128;BME280;64873;50.102;14.434;2023-02-20T14:06:24;99436.69;;;10.88;53.26
76128;BME280;64873;50.102;14.434;2023-02-20T14:09:06;99424.81;;;10.77;53.65
76128;BME280;64873;50.102;14.434;2023-02-20T14:11:35;99425.88;;;10.76;53.70
76128;BME280;64873;50.102;14.434;2023-02-20T14:14:07;99406.34;;;10.76;53.93
76128;BME280;64873;50.102;14.434;2023-02-20T14:16:35;99403.94;;;10.67;54.73
76128;BME280;64873;50.102;14.434;2023-02-20T14:19:26;99405.94;;;10.72;54.38
76128;BME280;64873;50.102;14.434;2023-02-20T14:21:54;99399.81;;;10.65;54.29
76128;BME280;64873;50.102;14.434;2023-02-20T14:24:25;99394.38;;;10.78;53.87
76128;BME280;64873;50.102;14.434;2023-02-20T14:26:51;99392.94;;;10.82;54.43
76128;BME280;64873;50.102;14.434;2023-02-20T14:29:22;99388.63;;;10.81;54.11
76128;BME280;64873;50.102;14.434;2023-02-20T14:31:49;99389.44;;;10.82;54.00
76128;BME280;64873;50.102;14.434;2023-02-20T14:34:36;99366.41;;;10.81;53.88
76128;BME280;64873;50.102;14.434;2023-02-20T14:40:05;99371.28;;;10.90;53.54
76128;BME280;64873;50.102;14.434;2023-02-20T14:42:38;99370.03;;;10.93;53.61
76128;BME280;64873;50.102;14.434;2023-02-20T14:45:13;99369.22;;;10.92;53.62
76128;BME280;64873;50.102;14.434;2023-02-20T14:47:58;99357.06;;;10.97;53.09
76128;BME280;64873;50.102;14.434;2023-02-20T14:50:32;99361.38;;;10.98;52.73
76128;BME280;64873;50.102;14.434;2023-02-20T14:53:18;99356.63;;;11.00;52.66
76128;BME280;64873;50.102;14.434;2023-02-20T14:55:48;99360.06;;;11.07;52.66
76128;BME280;64873;50.102;14.434;2023-02-20T14:58:16;99352.66;;;11.09;52.50